Portel, Brazil
Current Conditions -  °F | °C
As of 2:00 PM on Friday 24 Oct 2014 (Local Time) from SBHT Reporting Station
Broken Clouds Broken Clouds  
Wind Chill: 91°   Ceiling: 2500
Heat Index: 105°   Visibility: 6mi
Dew Point: 77°   Wind: 3mph
Humidity: 63%   Direction: 160°SSE
Pressure: 29.83"   Gusts: NA
Location:  1.94°S, 50.82°W
Report Text: SBHT 241700Z 16003KT 9999 BKN025 33/25 Q1010
Loading
Personal Weather Stations






























Interactive Weather Map
Tropical Storm Tracking
New forecast layout! Learn more

10-Day Weather Forecast

Advertisements
Track Severe Weather on mobile